sensor_id;sensor_type;location;lat;lon;timestamp;P1;durP1;ratioP1;P2;durP2;ratioP2
18159;SDS011;9205;52.032;4.314;2023-09-30T00:00:30;0.60;;;0.60;;
18159;SDS011;9205;52.032;4.314;2023-09-30T00:02:57;1.60;;;0.83;;
18159;SDS011;9205;52.032;4.314;2023-09-30T00:05:25;0.60;;;0.60;;
18159;SDS011;9205;52.032;4.314;2023-09-30T00:07:52;1.60;;;0.70;;
18159;SDS011;9205;52.032;4.314;2023-09-30T00:10:20;1.13;;;0.70;;
18159;SDS011;9205;52.032;4.314;2023-09-30T00:12:47;0.57;;;0.57;;
18159;SDS011;9205;52.032;4.314;2023-09-30T00:15:14;1.43;;;1.10;;
18159;SDS011;9205;52.032;4.314;2023-09-30T00:17:42;0.73;;;0.73;;
18159;SDS011;9205;52.032;4.314;2023-09-30T00:20:09;2.03;;;0.73;;
18159;SDS011;9205;52.032;4.314;2023-09-30T00:22:39;0.53;;;0.53;;
18159;SDS011;9205;52.032;4.314;2023-09-30T00:25:07;0.40;;;0.40;;
18159;SDS011;9205;52.032;4.314;2023-09-30T00:27:36;0.87;;;0.63;;
18159;SDS011;9205;52.032;4.314;2023-09-30T00:30:04;2.67;;;1.17;;
18159;SDS011;9205;52.032;4.314;2023-09-30T00:32:33;1.10;;;1.00;;
18159;SDS011;9205;52.032;4.314;2023-09-30T00:35:02;0.60;;;0.60;;
18159;SDS011;9205;52.032;4.314;2023-09-30T00:37:29;0.50;;;0.50;;
18159;SDS011;9205;52.032;4.314;2023-09-30T00:39:57;2.43;;;0.83;;
18159;SDS011;9205;52.032;4.314;2023-09-30T00:42:24;0.93;;;0.70;;
18159;SDS011;9205;52.032;4.314;2023-09-30T00:44:53;4.57;;;0.70;;
18159;SDS011;9205;52.032;4.314;2023-09-30T00:47:20;1.13;;;0.80;;
18159;SDS011;9205;52.032;4.314;2023-09-30T00:49:49;1.70;;;0.73;;
18159;SDS011;9205;52.032;4.314;2023-09-30T00:52:16;1.80;;;0.93;;
18159;SDS011;9205;52.032;4.314;2023-09-30T00:54:44;0.47;;;0.47;;
18159;SDS011;9205;52.032;4.314;2023-09-30T00:57:13;0.40;;;0.40;;
18159;SDS011;9205;52.032;4.314;2023-09-30T00:59:41;0.80;;;0.53;;
18159;SDS011;9205;52.032;4.314;2023-09-30T01:02:10;0.40;;;0.40;;
18159;SDS011;9205;52.032;4.314;2023-09-30T01:04:38;0.43;;;0.43;;
18159;SDS011;9205;52.032;4.314;2023-09-30T01:07:05;0.73;;;0.67;;
18159;SDS011;9205;52.032;4.314;2023-09-30T01:09:34;0.50;;;0.50;;
18159;SDS011;9205;52.032;4.314;2023-09-30T01:12:01;1.10;;;0.80;;
18159;SDS011;9205;52.032;4.314;2023-09-30T01:14:30;0.60;;;0.60;;
18159;SDS011;9205;52.032;4.314;2023-09-30T01:16:59;2.83;;;0.93;;
18159;SDS011;9205;52.032;4.314;2023-09-30T01:19:30;0.63;;;0.63;;
18159;SDS011;9205;52.032;4.314;2023-09-30T01:21:59;0.63;;;0.63;;
18159;SDS011;9205;52.032;4.314;2023-09-30T01:24:31;0.70;;;0.70;;
18159;SDS011;9205;52.032;4.314;2023-09-30T01:27:06;0.40;;;0.40;;
18159;SDS011;9205;52.032;4.314;2023-09-30T01:29:33;1.03;;;0.53;;
18159;SDS011;9205;52.032;4.314;2023-09-30T01:32:03;0.57;;;0.57;;
18159;SDS011;9205;52.032;4.314;2023-09-30T01:34:32;0.50;;;0.50;;
18159;SDS011;9205;52.032;4.314;2023-09-30T01:37:01;1.93;;;0.60;;
18159;SDS011;9205;52.032;4.314;2023-09-30T01:39:29;2.40;;;1.13;;
18159;SDS011;9205;52.032;4.314;2023-09-30T01:41:56;1.53;;;0.87;;
18159;SDS011;9205;52.032;4.314;2023-09-30T01:44:23;0.97;;;0.70;;
18159;SDS011;9205;52.032;4.314;2023-09-30T01:46:51;0.57;;;0.57;;
18159;SDS011;9205;52.032;4.314;2023-09-30T01:49:18;1.13;;;0.80;;
18159;SDS011;9205;52.032;4.314;2023-09-30T01:51:45;0.57;;;0.57;;
18159;SDS011;9205;52.032;4.314;2023-09-30T01:54:13;0.60;;;0.60;;
18159;SDS011;9205;52.032;4.314;2023-09-30T01:56:41;0.60;;;0.60;;
18159;SDS011;9205;52.032;4.314;2023-09-30T01:59:08;3.60;;;1.00;;
18159;SDS011;9205;52.032;4.314;2023-09-30T02:01:35;0.93;;;0.70;;
18159;SDS011;9205;52.032;4.314;2023-09-30T02:04:02;3.83;;;1.27;;
18159;SDS011;9205;52.032;4.314;2023-09-30T02:06:31;1.37;;;1.03;;
18159;SDS011;9205;52.032;4.314;2023-09-30T02:08:59;0.73;;;0.73;;
18159;SDS011;9205;52.032;4.314;2023-09-30T02:11:29;0.80;;;0.80;;
18159;SDS011;9205;52.032;4.314;2023-09-30T02:13:56;0.80;;;0.80;;
18159;SDS011;9205;52.032;4.314;2023-09-30T02:16:24;1.60;;;1.20;;
18159;SDS011;9205;52.032;4.314;2023-09-30T02:18:52;0.60;;;0.60;;
18159;SDS011;9205;52.032;4.314;2023-09-30T02:21:19;0.60;;;0.60;;
18159;SDS011;9205;52.032;4.314;2023-09-30T02:23:47;0.93;;;0.87;;
18159;SDS011;9205;52.032;4.314;2023-09-30T02:26:14;0.80;;;0.80;;
18159;SDS011;9205;52.032;4.314;2023-09-30T02:28:43;1.10;;;1.00;;
18159;SDS011;9205;52.032;4.314;2023-09-30T02:31:11;0.97;;;0.80;;
18159;SDS011;9205;52.032;4.314;2023-09-30T02:33:38;1.13;;;1.03;;
18159;SDS011;9205;52.032;4.314;2023-09-30T02:36:06;0.93;;;0.87;;
18159;SDS011;9205;52.032;4.314;2023-09-30T02:38:34;0.83;;;0.80;;
18159;SDS011;9205;52.032;4.314;2023-09-30T02:41:02;1.67;;;1.30;;
18159;SDS011;9205;52.032;4.314;2023-09-30T02:43:30;9.63;;;1.73;;
18159;SDS011;9205;52.032;4.314;2023-09-30T02:45:59;0.80;;;0.80;;
18159;SDS011;9205;52.032;4.314;2023-09-30T02:48:26;2.20;;;1.10;;
18159;SDS011;9205;52.032;4.314;2023-09-30T02:50:53;0.80;;;0.80;;
18159;SDS011;9205;52.032;4.314;2023-09-30T02:53:21;1.23;;;1.13;;
18159;SDS011;9205;52.032;4.314;2023-09-30T02:55:48;5.20;;;1.87;;
18159;SDS011;9205;52.032;4.314;2023-09-30T02:58:21;6.80;;;2.50;;
18159;SDS011;9205;52.032;4.314;2023-09-30T03:00:48;0.77;;;0.77;;
18159;SDS011;9205;52.032;4.314;2023-09-30T03:03:18;1.07;;;0.87;;
18159;SDS011;9205;52.032;4.314;2023-09-30T03:05:45;1.80;;;1.03;;
18159;SDS011;9205;52.032;4.314;2023-09-30T03:08:12;2.43;;;1.30;;
18159;SDS011;9205;52.032;4.314;2023-09-30T03:10:39;2.53;;;1.03;;
18159;SDS011;9205;52.032;4.314;2023-09-30T03:13:06;1.50;;;0.97;;
18159;SDS011;9205;52.032;4.314;2023-09-30T03:15:34;1.20;;;1.10;;
18159;SDS011;9205;52.032;4.314;2023-09-30T03:18:02;4.93;;;1.93;;
18159;SDS011;9205;52.032;4.314;2023-09-30T03:20:31;1.27;;;1.07;;
18159;SDS011;9205;52.032;4.314;2023-09-30T03:22:58;1.80;;;1.30;;
18159;SDS011;9205;52.032;4.314;2023-09-30T03:25:27;1.80;;;1.10;;
18159;SDS011;9205;52.032;4.314;2023-09-30T03:27:55;0.63;;;0.63;;
18159;SDS011;9205;52.032;4.314;2023-09-30T03:30:23;3.73;;;1.03;;
18159;SDS011;9205;52.032;4.314;2023-09-30T03:32:50;2.57;;;1.40;;
18159;SDS011;9205;52.032;4.314;2023-09-30T03:35:18;0.83;;;0.83;;
18159;SDS011;9205;52.032;4.314;2023-09-30T03:37:48;4.83;;;1.77;;
18159;SDS011;9205;52.032;4.314;2023-09-30T03:40:15;2.13;;;1.00;;
18159;SDS011;9205;52.032;4.314;2023-09-30T03:42:45;1.10;;;1.00;;
18159;SDS011;9205;52.032;4.314;2023-09-30T03:45:14;4.80;;;1.00;;
18159;SDS011;9205;52.032;4.314;2023-09-30T03:47:43;2.67;;;1.30;;
18159;SDS011;9205;52.032;4.314;2023-09-30T03:50:10;1.83;;;1.40;;
18159;SDS011;9205;52.032;4.314;2023-09-30T03:52:40;1.70;;;1.30;;
18159;SDS011;9205;52.032;4.314;2023-09-30T03:55:11;1.30;;;1.20;;
18159;SDS011;9205;52.032;4.314;2023-09-30T03:57:39;1.60;;;1.30;;
18159;SDS011;9205;52.032;4.314;2023-09-30T04:00:07;1.93;;;1.30;;
18159;SDS011;9205;52.032;4.314;2023-09-30T04:02:41;1.10;;;1.00;;
18159;SDS011;9205;52.032;4.314;2023-09-30T04:05:09;2.03;;;1.50;;
18159;SDS011;9205;52.032;4.314;2023-09-30T04:07:39;1.30;;;0.90;;
18159;SDS011;9205;52.032;4.314;2023-09-30T04:10:07;1.00;;;0.90;;
18159;SDS011;9205;52.032;4.314;2023-09-30T04:12:37;2.27;;;1.77;;
18159;SDS011;9205;52.032;4.314;2023-09-30T04:15:04;1.70;;;1.10;;
18159;SDS011;9205;52.032;4.314;2023-09-30T04:17:36;2.47;;;1.67;;
18159;SDS011;9205;52.032;4.314;2023-09-30T04:20:05;7.17;;;1.90;;
18159;SDS011;9205;52.032;4.314;2023-09-30T04:22:36;1.07;;;1.03;;
18159;SDS011;9205;52.032;4.314;2023-09-30T04:25:04;1.87;;;1.30;;
18159;SDS011;9205;52.032;4.314;2023-09-30T04:27:37;0.80;;;0.80;;
18159;SDS011;9205;52.032;4.314;2023-09-30T04:30:05;1.43;;;1.20;;
18159;SDS011;9205;52.032;4.314;2023-09-30T04:32:34;5.83;;;1.83;;
18159;SDS011;9205;52.032;4.314;2023-09-30T04:35:02;5.70;;;1.97;;
18159;SDS011;9205;52.032;4.314;2023-09-30T04:37:29;1.63;;;1.27;;
18159;SDS011;9205;52.032;4.314;2023-09-30T04:39:56;2.20;;;1.30;;
18159;SDS011;9205;52.032;4.314;2023-09-30T04:42:24;2.90;;;1.33;;
18159;SDS011;9205;52.032;4.314;2023-09-30T04:44:52;2.93;;;1.47;;
18159;SDS011;9205;52.032;4.314;2023-09-30T04:47:20;1.47;;;1.37;;
18159;SDS011;9205;52.032;4.314;2023-09-30T04:49:49;3.50;;;1.77;;
18159;SDS011;9205;52.032;4.314;2023-09-30T04:52:16;1.60;;;1.10;;
18159;SDS011;9205;52.032;4.314;2023-09-30T04:54:43;1.57;;;0.90;;
18159;SDS011;9205;52.032;4.314;2023-09-30T04:57:11;2.60;;;1.20;;
18159;SDS011;9205;52.032;4.314;2023-09-30T04:59:38;1.20;;;1.10;;
18159;SDS011;9205;52.032;4.314;2023-09-30T05:02:07;6.23;;;1.90;;
18159;SDS011;9205;52.032;4.314;2023-09-30T05:04:34;1.40;;;1.20;;
18159;SDS011;9205;52.032;4.314;2023-09-30T05:07:02;1.37;;;1.17;;
18159;SDS011;9205;52.032;4.314;2023-09-30T05:09:29;1.67;;;1.33;;
18159;SDS011;9205;52.032;4.314;2023-09-30T05:11:56;10.43;;;1.40;;
18159;SDS011;9205;52.032;4.314;2023-09-30T05:14:24;2.50;;;1.53;;
18159;SDS011;9205;52.032;4.314;2023-09-30T05:16:54;2.57;;;1.33;;
18159;SDS011;9205;52.032;4.314;2023-09-30T05:19:23;3.37;;;1.63;;
18159;SDS011;9205;52.032;4.314;2023-09-30T05:21:51;1.77;;;1.50;;
18159;SDS011;9205;52.032;4.314;2023-09-30T05:24:18;1.13;;;1.00;;
18159;SDS011;9205;52.032;4.314;2023-09-30T05:26:46;1.67;;;1.20;;
18159;SDS011;9205;52.032;4.314;2023-09-30T05:29:14;2.77;;;1.57;;
18159;SDS011;9205;52.032;4.314;2023-09-30T05:31:42;4.70;;;1.57;;
18159;SDS011;9205;52.032;4.314;2023-09-30T05:34:10;1.90;;;1.53;;
18159;SDS011;9205;52.032;4.314;2023-09-30T05:36:38;1.57;;;1.43;;
18159;SDS011;9205;52.032;4.314;2023-09-30T05:39:05;0.80;;;0.80;;
18159;SDS011;9205;52.032;4.314;2023-09-30T05:41:35;1.83;;;1.50;;
18159;SDS011;9205;52.032;4.314;2023-09-30T05:44:03;2.07;;;1.27;;
18159;SDS011;9205;52.032;4.314;2023-09-30T05:46:31;1.50;;;1.27;;
18159;SDS011;9205;52.032;4.314;2023-09-30T05:48:58;2.33;;;1.30;;
18159;SDS011;9205;52.032;4.314;2023-09-30T05:51:25;2.23;;;1.80;;
18159;SDS011;9205;52.032;4.314;2023-09-30T05:53:54;2.23;;;1.80;;
18159;SDS011;9205;52.032;4.314;2023-09-30T05:56:21;1.50;;;1.10;;
18159;SDS011;9205;52.032;4.314;2023-09-30T05:58:48;1.10;;;1.00;;
18159;SDS011;9205;52.032;4.314;2023-09-30T06:01:16;2.77;;;1.60;;
18159;SDS011;9205;52.032;4.314;2023-09-30T06:03:44;1.40;;;1.20;;
18159;SDS011;9205;52.032;4.314;2023-09-30T06:06:13;1.20;;;1.10;;
18159;SDS011;9205;52.032;4.314;2023-09-30T06:08:41;1.80;;;1.27;;
18159;SDS011;9205;52.032;4.314;2023-09-30T06:11:17;3.47;;;1.50;;
18159;SDS011;9205;52.032;4.314;2023-09-30T06:13:44;3.20;;;1.60;;
18159;SDS011;9205;52.032;4.314;2023-09-30T06:16:12;2.10;;;1.60;;
18159;SDS011;9205;52.032;4.314;2023-09-30T06:18:39;2.37;;;1.20;;
18159;SDS011;9205;52.032;4.314;2023-09-30T06:21:06;1.30;;;1.20;;
18159;SDS011;9205;52.032;4.314;2023-09-30T06:23:35;2.40;;;1.53;;
18159;SDS011;9205;52.032;4.314;2023-09-30T06:26:03;2.17;;;1.50;;
18159;SDS011;9205;52.032;4.314;2023-09-30T06:28:31;2.50;;;1.50;;
18159;SDS011;9205;52.032;4.314;2023-09-30T06:31:05;2.97;;;1.93;;
18159;SDS011;9205;52.032;4.314;2023-09-30T06:33:34;2.53;;;1.67;;
18159;SDS011;9205;52.032;4.314;2023-09-30T06:36:13;3.20;;;1.80;;
18159;SDS011;9205;52.032;4.314;2023-09-30T06:38:41;1.87;;;1.27;;
18159;SDS011;9205;52.032;4.314;2023-09-30T06:41:16;1.53;;;1.20;;
18159;SDS011;9205;52.032;4.314;2023-09-30T06:43:46;2.00;;;1.70;;
18159;SDS011;9205;52.032;4.314;2023-09-30T06:46:14;1.90;;;1.53;;
18159;SDS011;9205;52.032;4.314;2023-09-30T06:48:46;1.30;;;1.10;;
18159;SDS011;9205;52.032;4.314;2023-09-30T06:51:14;12.20;;;1.67;;
18159;SDS011;9205;52.032;4.314;2023-09-30T06:53:44;2.00;;;1.60;;
18159;SDS011;9205;52.032;4.314;2023-09-30T06:56:12;1.80;;;1.37;;
18159;SDS011;9205;52.032;4.314;2023-09-30T06:58:40;5.23;;;1.37;;
18159;SDS011;9205;52.032;4.314;2023-09-30T07:01:08;1.23;;;1.10;;
18159;SDS011;9205;52.032;4.314;2023-09-30T07:03:42;2.20;;;1.87;;
18159;SDS011;9205;52.032;4.314;2023-09-30T07:06:09;4.53;;;1.97;;
18159;SDS011;9205;52.032;4.314;2023-09-30T07:08:36;1.00;;;0.97;;
18159;SDS011;9205;52.032;4.314;2023-09-30T07:11:03;2.80;;;1.80;;
18159;SDS011;9205;52.032;4.314;2023-09-30T07:13:32;2.77;;;1.80;;
18159;SDS011;9205;52.032;4.314;2023-09-30T07:16:00;1.30;;;1.20;;
18159;SDS011;9205;52.032;4.314;2023-09-30T07:18:29;2.50;;;1.00;;
18159;SDS011;9205;52.032;4.314;2023-09-30T07:20:56;3.83;;;1.87;;
18159;SDS011;9205;52.032;4.314;2023-09-30T07:23:23;1.37;;;1.17;;
18159;SDS011;9205;52.032;4.314;2023-09-30T07:25:51;1.70;;;1.17;;
18159;SDS011;9205;52.032;4.314;2023-09-30T07:28:18;2.63;;;1.37;;
18159;SDS011;9205;52.032;4.314;2023-09-30T07:30:45;4.17;;;1.50;;
18159;SDS011;9205;52.032;4.314;2023-09-30T07:33:12;2.20;;;1.40;;
18159;SDS011;9205;52.032;4.314;2023-09-30T07:35:41;5.13;;;1.40;;
18159;SDS011;9205;52.032;4.314;2023-09-30T07:38:08;3.00;;;1.77;;
18159;SDS011;9205;52.032;4.314;2023-09-30T07:40:35;2.10;;;1.80;;
18159;SDS011;9205;52.032;4.314;2023-09-30T07:43:03;3.10;;;1.73;;
18159;SDS011;9205;52.032;4.314;2023-09-30T07:45:30;2.43;;;1.37;;
18159;SDS011;9205;52.032;4.314;2023-09-30T07:47:57;3.83;;;1.63;;
18159;SDS011;9205;52.032;4.314;2023-09-30T07:50:24;5.00;;;1.97;;
18159;SDS011;9205;52.032;4.314;2023-09-30T07:52:53;2.90;;;1.90;;
18159;SDS011;9205;52.032;4.314;2023-09-30T07:55:20;3.20;;;1.80;;
18159;SDS011;9205;52.032;4.314;2023-09-30T07:57:47;2.17;;;1.53;;
18159;SDS011;9205;52.032;4.314;2023-09-30T08:00:15;1.57;;;1.20;;
18159;SDS011;9205;52.032;4.314;2023-09-30T08:02:43;4.43;;;1.87;;
18159;SDS011;9205;52.032;4.314;2023-09-30T08:05:11;2.17;;;1.47;;
18159;SDS011;9205;52.032;4.314;2023-09-30T08:07:39;1.60;;;1.13;;
18159;SDS011;9205;52.032;4.314;2023-09-30T08:10:08;4.03;;;1.70;;
18159;SDS011;9205;52.032;4.314;2023-09-30T08:12:38;1.47;;;1.00;;
18159;SDS011;9205;52.032;4.314;2023-09-30T08:15:06;4.10;;;1.10;;
18159;SDS011;9205;52.032;4.314;2023-09-30T08:17:36;3.77;;;1.53;;
18159;SDS011;9205;52.032;4.314;2023-09-30T08:20:04;1.33;;;1.00;;
18159;SDS011;9205;52.032;4.314;2023-09-30T08:22:33;1.63;;;1.20;;
18159;SDS011;9205;52.032;4.314;2023-09-30T08:25:01;0.70;;;0.70;;
18159;SDS011;9205;52.032;4.314;2023-09-30T08:27:33;1.30;;;1.20;;
18159;SDS011;9205;52.032;4.314;2023-09-30T08:30:06;2.93;;;1.23;;
18159;SDS011;9205;52.032;4.314;2023-09-30T08:32:35;1.03;;;0.93;;
18159;SDS011;9205;52.032;4.314;2023-09-30T08:35:04;4.27;;;1.73;;
18159;SDS011;9205;52.032;4.314;2023-09-30T08:37:38;0.80;;;0.80;;
18159;SDS011;9205;52.032;4.314;2023-09-30T08:40:08;3.57;;;1.53;;
18159;SDS011;9205;52.032;4.314;2023-09-30T08:42:39;1.33;;;0.73;;
18159;SDS011;9205;52.032;4.314;2023-09-30T08:45:08;1.20;;;1.07;;
18159;SDS011;9205;52.032;4.314;2023-09-30T08:47:45;0.80;;;0.80;;
18159;SDS011;9205;52.032;4.314;2023-09-30T08:50:13;1.93;;;1.00;;
18159;SDS011;9205;52.032;4.314;2023-09-30T08:52:43;0.90;;;0.73;;
18159;SDS011;9205;52.032;4.314;2023-09-30T08:55:12;3.50;;;1.07;;
18159;SDS011;9205;52.032;4.314;2023-09-30T08:57:49;1.07;;;0.90;;
18159;SDS011;9205;52.032;4.314;2023-09-30T09:00:18;2.17;;;1.43;;
18159;SDS011;9205;52.032;4.314;2023-09-30T09:02:51;2.70;;;0.77;;
18159;SDS011;9205;52.032;4.314;2023-09-30T09:05:21;1.13;;;1.07;;
18159;SDS011;9205;52.032;4.314;2023-09-30T09:07:49;2.30;;;0.70;;
18159;SDS011;9205;52.032;4.314;2023-09-30T09:10:16;0.87;;;0.60;;
18159;SDS011;9205;52.032;4.314;2023-09-30T09:12:44;0.77;;;0.77;;
18159;SDS011;9205;52.032;4.314;2023-09-30T09:15:24;0.70;;;0.70;;
18159;SDS011;9205;52.032;4.314;2023-09-30T09:17:53;1.63;;;1.13;;
18159;SDS011;9205;52.032;4.314;2023-09-30T09:20:21;0.67;;;0.67;;
18159;SDS011;9205;52.032;4.314;2023-09-30T09:22:51;0.97;;;0.80;;
18159;SDS011;9205;52.032;4.314;2023-09-30T09:25:21;0.70;;;0.70;;
18159;SDS011;9205;52.032;4.314;2023-09-30T09:27:49;4.50;;;1.17;;
18159;SDS011;9205;52.032;4.314;2023-09-30T09:30:20;0.70;;;0.70;;
18159;SDS011;9205;52.032;4.314;2023-09-30T09:32:53;0.67;;;0.67;;
18159;SDS011;9205;52.032;4.314;2023-09-30T09:35:24;0.60;;;0.60;;
18159;SDS011;9205;52.032;4.314;2023-09-30T09:37:54;1.10;;;0.77;;
18159;SDS011;9205;52.032;4.314;2023-09-30T09:40:24;0.60;;;0.60;;
18159;SDS011;9205;52.032;4.314;2023-09-30T09:42:53;1.53;;;0.83;;
18159;SDS011;9205;52.032;4.314;2023-09-30T09:45:24;1.00;;;1.00;;
18159;SDS011;9205;52.032;4.314;2023-09-30T09:47:54;0.53;;;0.53;;
18159;SDS011;9205;52.032;4.314;2023-09-30T09:50:22;0.50;;;0.50;;
18159;SDS011;9205;52.032;4.314;2023-09-30T09:52:50;1.40;;;0.40;;
18159;SDS011;9205;52.032;4.314;2023-09-30T09:55:20;0.60;;;0.60;;
18159;SDS011;9205;52.032;4.314;2023-09-30T09:57:50;0.70;;;0.70;;
18159;SDS011;9205;52.032;4.314;2023-09-30T10:00:18;0.50;;;0.50;;
18159;SDS011;9205;52.032;4.314;2023-09-30T10:02:49;1.80;;;0.83;;
18159;SDS011;9205;52.032;4.314;2023-09-30T10:05:18;0.50;;;0.50;;
18159;SDS011;9205;52.032;4.314;2023-09-30T10:07:50;3.60;;;1.53;;
18159;SDS011;9205;52.032;4.314;2023-09-30T10:10:21;0.93;;;0.83;;
18159;SDS011;9205;52.032;4.314;2023-09-30T10:12:50;0.90;;;0.70;;
18159;SDS011;9205;52.032;4.314;2023-09-30T10:15:34;0.67;;;0.67;;
18159;SDS011;9205;52.032;4.314;2023-09-30T10:18:09;0.73;;;0.73;;
18159;SDS011;9205;52.032;4.314;2023-09-30T10:20:38;0.97;;;0.70;;
18159;SDS011;9205;52.032;4.314;2023-09-30T10:23:23;1.17;;;0.80;;
18159;SDS011;9205;52.032;4.314;2023-09-30T10:25:53;3.00;;;1.13;;
18159;SDS011;9205;52.032;4.314;2023-09-30T10:28:40;1.23;;;0.53;;
18159;SDS011;9205;52.032;4.314;2023-09-30T10:31:11;0.60;;;0.60;;
18159;SDS011;9205;52.032;4.314;2023-09-30T10:36:49;0.67;;;0.60;;
18159;SDS011;9205;52.032;4.314;2023-09-30T10:45:44;0.50;;;0.50;;
18159;SDS011;9205;52.032;4.314;2023-09-30T10:51:13;0.70;;;0.70;;
18159;SDS011;9205;52.032;4.314;2023-09-30T10:53:44;0.70;;;0.70;;
18159;SDS011;9205;52.032;4.314;2023-09-30T10:56:15;0.60;;;0.60;;
18159;SDS011;9205;52.032;4.314;2023-09-30T10:58:43;0.73;;;0.67;;
18159;SDS011;9205;52.032;4.314;2023-09-30T11:01:12;1.20;;;0.60;;
18159;SDS011;9205;52.032;4.314;2023-09-30T11:03:41;7.50;;;0.87;;
18159;SDS011;9205;52.032;4.314;2023-09-30T11:06:15;1.73;;;0.83;;
18159;SDS011;9205;52.032;4.314;2023-09-30T11:08:46;0.60;;;0.60;;
18159;SDS011;9205;52.032;4.314;2023-09-30T11:11:31;0.90;;;0.67;;
18159;SDS011;9205;52.032;4.314;2023-09-30T11:14:03;0.60;;;0.60;;
18159;SDS011;9205;52.032;4.314;2023-09-30T11:16:42;1.43;;;1.00;;
18159;SDS011;9205;52.032;4.314;2023-09-30T11:19:10;0.50;;;0.50;;
18159;SDS011;9205;52.032;4.314;2023-09-30T11:21:39;1.97;;;0.60;;
18159;SDS011;9205;52.032;4.314;2023-09-30T11:24:08;2.67;;;1.20;;
18159;SDS011;9205;52.032;4.314;2023-09-30T11:26:36;2.60;;;0.80;;
18159;SDS011;9205;52.032;4.314;2023-09-30T11:29:09;1.53;;;0.93;;
18159;SDS011;9205;52.032;4.314;2023-09-30T11:31:38;1.00;;;0.73;;
18159;SDS011;9205;52.032;4.314;2023-09-30T11:34:08;1.10;;;0.80;;
18159;SDS011;9205;52.032;4.314;2023-09-30T11:36:37;0.50;;;0.50;;
18159;SDS011;9205;52.032;4.314;2023-09-30T11:39:07;1.90;;;0.90;;
18159;SDS011;9205;52.032;4.314;2023-09-30T11:41:36;1.53;;;0.67;;
18159;SDS011;9205;52.032;4.314;2023-09-30T11:44:06;1.07;;;0.53;;
18159;SDS011;9205;52.032;4.314;2023-09-30T11:46:47;0.50;;;0.50;;
18159;SDS011;9205;52.032;4.314;2023-09-30T11:49:24;1.03;;;0.80;;
18159;SDS011;9205;52.032;4.314;2023-09-30T11:51:58;1.80;;;0.70;;
18159;SDS011;9205;52.032;4.314;2023-09-30T11:54:32;1.70;;;0.93;;
18159;SDS011;9205;52.032;4.314;2023-09-30T11:57:04;2.67;;;1.23;;
18159;SDS011;9205;52.032;4.314;2023-09-30T11:59:34;1.10;;;0.60;;
18159;SDS011;9205;52.032;4.314;2023-09-30T12:02:03;6.60;;;1.27;;
18159;SDS011;9205;52.032;4.314;2023-09-30T12:04:31;2.90;;;0.80;;
18159;SDS011;9205;52.032;4.314;2023-09-30T12:07:01;0.60;;;0.60;;
18159;SDS011;9205;52.032;4.314;2023-09-30T12:09:28;2.00;;;0.80;;
18159;SDS011;9205;52.032;4.314;2023-09-30T12:11:56;1.10;;;0.67;;
18159;SDS011;9205;52.032;4.314;2023-09-30T12:14:24;1.10;;;0.90;;
18159;SDS011;9205;52.032;4.314;2023-09-30T12:16:51;0.97;;;0.60;;
18159;SDS011;9205;52.032;4.314;2023-09-30T12:19:19;2.40;;;0.87;;
18159;SDS011;9205;52.032;4.314;2023-09-30T12:21:47;0.80;;;0.70;;
18159;SDS011;9205;52.032;4.314;2023-09-30T12:24:17;0.80;;;0.80;;
18159;SDS011;9205;52.032;4.314;2023-09-30T12:26:48;0.73;;;0.70;;
18159;SDS011;9205;52.032;4.314;2023-09-30T12:29:18;0.50;;;0.50;;
18159;SDS011;9205;52.032;4.314;2023-09-30T12:31:47;1.00;;;0.90;;
18159;SDS011;9205;52.032;4.314;2023-09-30T12:34:16;2.50;;;1.10;;
18159;SDS011;9205;52.032;4.314;2023-09-30T12:36:44;1.67;;;1.00;;
18159;SDS011;9205;52.032;4.314;2023-09-30T12:39:12;1.90;;;0.77;;
18159;SDS011;9205;52.032;4.314;2023-09-30T12:41:43;0.73;;;0.60;;
18159;SDS011;9205;52.032;4.314;2023-09-30T12:44:10;0.50;;;0.50;;
18159;SDS011;9205;52.032;4.314;2023-09-30T12:46:40;3.17;;;1.10;;
18159;SDS011;9205;52.032;4.314;2023-09-30T12:49:07;0.77;;;0.67;;
18159;SDS011;9205;52.032;4.314;2023-09-30T12:51:35;0.67;;;0.67;;
18159;SDS011;9205;52.032;4.314;2023-09-30T12:54:03;1.27;;;0.63;;
18159;SDS011;9205;52.032;4.314;2023-09-30T12:56:33;1.17;;;0.87;;
18159;SDS011;9205;52.032;4.314;2023-09-30T12:59:01;1.50;;;0.67;;
18159;SDS011;9205;52.032;4.314;2023-09-30T13:01:29;0.60;;;0.60;;
18159;SDS011;9205;52.032;4.314;2023-09-30T13:03:59;0.80;;;0.50;;
18159;SDS011;9205;52.032;4.314;2023-09-30T13:06:26;0.40;;;0.40;;
18159;SDS011;9205;52.032;4.314;2023-09-30T13:08:56;1.03;;;0.70;;
18159;SDS011;9205;52.032;4.314;2023-09-30T13:11:24;0.60;;;0.40;;
18159;SDS011;9205;52.032;4.314;2023-09-30T13:13:51;2.23;;;0.60;;
18159;SDS011;9205;52.032;4.314;2023-09-30T13:16:20;0.40;;;0.40;;
18159;SDS011;9205;52.032;4.314;2023-09-30T13:18:48;2.03;;;0.70;;
18159;SDS011;9205;52.032;4.314;2023-09-30T13:21:17;0.60;;;0.57;;
18159;SDS011;9205;52.032;4.314;2023-09-30T13:23:45;0.67;;;0.50;;
18159;SDS011;9205;52.032;4.314;2023-09-30T13:26:16;0.97;;;0.50;;
18159;SDS011;9205;52.032;4.314;2023-09-30T13:28:44;0.50;;;0.50;;
18159;SDS011;9205;52.032;4.314;2023-09-30T13:31:11;1.17;;;0.70;;
18159;SDS011;9205;52.032;4.314;2023-09-30T13:33:40;1.13;;;0.80;;
18159;SDS011;9205;52.032;4.314;2023-09-30T13:36:07;0.60;;;0.60;;
18159;SDS011;9205;52.032;4.314;2023-09-30T13:38:35;0.70;;;0.60;;
18159;SDS011;9205;52.032;4.314;2023-09-30T13:41:02;0.80;;;0.50;;
18159;SDS011;9205;52.032;4.314;2023-09-30T13:43:30;0.30;;;0.30;;
18159;SDS011;9205;52.032;4.314;2023-09-30T13:45:57;0.57;;;0.57;;
18159;SDS011;9205;52.032;4.314;2023-09-30T13:48:31;0.70;;;0.63;;
18159;SDS011;9205;52.032;4.314;2023-09-30T13:51:04;1.90;;;0.70;;
18159;SDS011;9205;52.032;4.314;2023-09-30T13:53:32;1.43;;;0.57;;
18159;SDS011;9205;52.032;4.314;2023-09-30T13:56:00;0.40;;;0.40;;
18159;SDS011;9205;52.032;4.314;2023-09-30T13:58:29;2.43;;;0.60;;
18159;SDS011;9205;52.032;4.314;2023-09-30T14:00:56;0.60;;;0.60;;
18159;SDS011;9205;52.032;4.314;2023-09-30T14:03:23;1.60;;;0.50;;
18159;SDS011;9205;52.032;4.314;2023-09-30T14:05:50;0.60;;;0.50;;
18159;SDS011;9205;52.032;4.314;2023-09-30T14:08:20;1.70;;;0.57;;
18159;SDS011;9205;52.032;4.314;2023-09-30T14:10:48;0.93;;;0.40;;
18159;SDS011;9205;52.032;4.314;2023-09-30T14:13:16;0.40;;;0.40;;
18159;SDS011;9205;52.032;4.314;2023-09-30T14:15:44;1.50;;;0.50;;
18159;SDS011;9205;52.032;4.314;2023-09-30T14:18:12;0.60;;;0.60;;
18159;SDS011;9205;52.032;4.314;2023-09-30T14:20:40;1.67;;;1.10;;
18159;SDS011;9205;52.032;4.314;2023-09-30T14:23:07;0.50;;;0.47;;
18159;SDS011;9205;52.032;4.314;2023-09-30T14:25:36;0.30;;;0.30;;
18159;SDS011;9205;52.032;4.314;2023-09-30T14:28:03;1.07;;;0.50;;
18159;SDS011;9205;52.032;4.314;2023-09-30T14:30:31;0.60;;;0.60;;
18159;SDS011;9205;52.032;4.314;2023-09-30T14:32:58;2.57;;;0.63;;
18159;SDS011;9205;52.032;4.314;2023-09-30T14:35:26;0.50;;;0.50;;
18159;SDS011;9205;52.032;4.314;2023-09-30T14:37:53;0.83;;;0.70;;
18159;SDS011;9205;52.032;4.314;2023-09-30T14:40:22;0.60;;;0.60;;
18159;SDS011;9205;52.032;4.314;2023-09-30T14:42:50;0.37;;;0.37;;
18159;SDS011;9205;52.032;4.314;2023-09-30T14:45:18;0.40;;;0.40;;
18159;SDS011;9205;52.032;4.314;2023-09-30T14:47:46;0.63;;;0.43;;
18159;SDS011;9205;52.032;4.314;2023-09-30T14:50:14;0.73;;;0.67;;
18159;SDS011;9205;52.032;4.314;2023-09-30T14:52:41;1.57;;;0.63;;
18159;SDS011;9205;52.032;4.314;2023-09-30T14:55:09;1.57;;;0.70;;
18159;SDS011;9205;52.032;4.314;2023-09-30T14:57:36;2.30;;;1.13;;
18159;SDS011;9205;52.032;4.314;2023-09-30T15:00:06;1.40;;;0.60;;
18159;SDS011;9205;52.032;4.314;2023-09-30T15:02:36;4.27;;;1.17;;
18159;SDS011;9205;52.032;4.314;2023-09-30T15:05:06;0.97;;;0.80;;
18159;SDS011;9205;52.032;4.314;2023-09-30T15:07:34;0.53;;;0.53;;
18159;SDS011;9205;52.032;4.314;2023-09-30T15:10:02;0.67;;;0.67;;
18159;SDS011;9205;52.032;4.314;2023-09-30T15:12:30;0.60;;;0.40;;
18159;SDS011;9205;52.032;4.314;2023-09-30T15:14:57;1.63;;;0.70;;
18159;SDS011;9205;52.032;4.314;2023-09-30T15:17:26;0.83;;;0.60;;
18159;SDS011;9205;52.032;4.314;2023-09-30T15:19:54;0.70;;;0.67;;
18159;SDS011;9205;52.032;4.314;2023-09-30T15:22:22;2.47;;;1.27;;